sensor_id;sensor_type;location;lat;lon;timestamp;P1;durP1;ratioP1;P2;durP2;ratioP2
42110;SDS011;27766;52.174;5.456;2022-11-30T00:01:14;26.13;;;18.90;;
42110;SDS011;27766;52.174;5.456;2022-11-30T00:03:43;27.88;;;20.27;;
42110;SDS011;27766;52.174;5.456;2022-11-30T00:06:11;31.90;;;22.73;;
42110;SDS011;27766;52.174;5.456;2022-11-30T00:08:49;31.10;;;22.13;;
42110;SDS011;27766;52.174;5.456;2022-11-30T00:11:22;30.13;;;22.17;;
42110;SDS011;27766;52.174;5.456;2022-11-30T00:13:51;35.35;;;22.70;;
42110;SDS011;27766;52.174;5.456;2022-11-30T00:16:18;32.97;;;23.20;;
42110;SDS011;27766;52.174;5.456;2022-11-30T00:18:45;32.38;;;21.80;;
42110;SDS011;27766;52.174;5.456;2022-11-30T00:21:13;27.35;;;20.17;;
42110;SDS011;27766;52.174;5.456;2022-11-30T00:23:41;29.80;;;18.95;;
42110;SDS011;27766;52.174;5.456;2022-11-30T00:26:11;26.23;;;18.08;;
42110;SDS011;27766;52.174;5.456;2022-11-30T00:28:40;20.17;;;15.95;;
42110;SDS011;27766;52.174;5.456;2022-11-30T00:31:10;22.00;;;17.50;;
42110;SDS011;27766;52.174;5.456;2022-11-30T00:33:40;22.92;;;17.67;;
42110;SDS011;27766;52.174;5.456;2022-11-30T00:36:09;21.90;;;18.05;;
42110;SDS011;27766;52.174;5.456;2022-11-30T00:38:38;25.85;;;18.52;;
42110;SDS011;27766;52.174;5.456;2022-11-30T00:41:06;24.88;;;17.40;;
42110;SDS011;27766;52.174;5.456;2022-11-30T00:43:33;23.77;;;17.52;;
42110;SDS011;27766;52.174;5.456;2022-11-30T00:46:00;22.63;;;18.42;;
42110;SDS011;27766;52.174;5.456;2022-11-30T00:48:27;22.65;;;17.90;;
42110;SDS011;27766;52.174;5.456;2022-11-30T00:50:55;29.33;;;18.55;;
42110;SDS011;27766;52.174;5.456;2022-11-30T00:53:22;22.83;;;18.65;;
42110;SDS011;27766;52.174;5.456;2022-11-30T00:55:51;26.27;;;19.08;;
42110;SDS011;27766;52.174;5.456;2022-11-30T00:58:18;25.58;;;19.50;;
42110;SDS011;27766;52.174;5.456;2022-11-30T01:00:45;25.15;;;20.23;;
42110;SDS011;27766;52.174;5.456;2022-11-30T01:03:13;26.63;;;19.42;;
42110;SDS011;27766;52.174;5.456;2022-11-30T01:05:40;25.05;;;18.98;;
42110;SDS011;27766;52.174;5.456;2022-11-30T01:08:09;26.77;;;19.58;;
42110;SDS011;27766;52.174;5.456;2022-11-30T01:10:38;23.42;;;18.45;;
42110;SDS011;27766;52.174;5.456;2022-11-30T01:13:06;29.23;;;19.35;;
42110;SDS011;27766;52.174;5.456;2022-11-30T01:15:37;23.58;;;18.42;;
42110;SDS011;27766;52.174;5.456;2022-11-30T01:18:06;22.02;;;17.98;;
42110;SDS011;27766;52.174;5.456;2022-11-30T01:20:33;23.75;;;18.30;;
42110;SDS011;27766;52.174;5.456;2022-11-30T01:23:01;22.48;;;17.83;;
42110;SDS011;27766;52.174;5.456;2022-11-30T01:25:28;25.30;;;19.15;;
42110;SDS011;27766;52.174;5.456;2022-11-30T01:27:55;26.20;;;18.85;;
42110;SDS011;27766;52.174;5.456;2022-11-30T01:30:22;24.15;;;17.23;;
42110;SDS011;27766;52.174;5.456;2022-11-30T01:32:49;26.30;;;19.55;;
42110;SDS011;27766;52.174;5.456;2022-11-30T01:35:16;26.95;;;18.20;;
42110;SDS011;27766;52.174;5.456;2022-11-30T01:37:43;25.95;;;19.05;;
42110;SDS011;27766;52.174;5.456;2022-11-30T01:40:10;24.73;;;19.05;;
42110;SDS011;27766;52.174;5.456;2022-11-30T01:42:40;23.70;;;19.55;;
42110;SDS011;27766;52.174;5.456;2022-11-30T01:47:44;21.88;;;17.95;;
42110;SDS011;27766;52.174;5.456;2022-11-30T01:50:16;28.90;;;17.90;;
42110;SDS011;27766;52.174;5.456;2022-11-30T01:52:49;22.92;;;18.17;;
42110;SDS011;27766;52.174;5.456;2022-11-30T02:00:24;27.00;;;18.83;;
42110;SDS011;27766;52.174;5.456;2022-11-30T02:02:54;25.70;;;18.42;;
42110;SDS011;27766;52.174;5.456;2022-11-30T02:05:28;25.88;;;19.63;;
42110;SDS011;27766;52.174;5.456;2022-11-30T02:07:57;27.95;;;19.55;;
42110;SDS011;27766;52.174;5.456;2022-11-30T02:10:26;29.98;;;19.38;;
42110;SDS011;27766;52.174;5.456;2022-11-30T02:27:12;22.63;;;18.13;;
42110;SDS011;27766;52.174;5.456;2022-11-30T02:29:48;22.50;;;17.02;;
42110;SDS011;27766;52.174;5.456;2022-11-30T02:34:53;26.10;;;18.67;;
42110;SDS011;27766;52.174;5.456;2022-11-30T02:37:24;25.05;;;18.73;;
42110;SDS011;27766;52.174;5.456;2022-11-30T02:39:53;25.88;;;19.15;;
42110;SDS011;27766;52.174;5.456;2022-11-30T02:42:21;27.27;;;18.08;;
42110;SDS011;27766;52.174;5.456;2022-11-30T02:44:48;30.08;;;17.77;;
42110;SDS011;27766;52.174;5.456;2022-11-30T02:49:53;23.33;;;18.67;;
42110;SDS011;27766;52.174;5.456;2022-11-30T02:52:24;27.25;;;18.77;;
42110;SDS011;27766;52.174;5.456;2022-11-30T02:55:03;27.88;;;19.45;;
42110;SDS011;27766;52.174;5.456;2022-11-30T02:57:33;30.00;;;20.30;;
42110;SDS011;27766;52.174;5.456;2022-11-30T03:00:02;29.35;;;21.00;;
42110;SDS011;27766;52.174;5.456;2022-11-30T03:02:32;23.92;;;18.48;;
42110;SDS011;27766;52.174;5.456;2022-11-30T03:05:00;29.13;;;19.45;;
42110;SDS011;27766;52.174;5.456;2022-11-30T03:07:27;25.23;;;19.17;;
42110;SDS011;27766;52.174;5.456;2022-11-30T03:09:54;23.33;;;19.00;;
42110;SDS011;27766;52.174;5.456;2022-11-30T03:12:22;25.27;;;19.08;;
42110;SDS011;27766;52.174;5.456;2022-11-30T03:14:49;24.70;;;19.67;;
42110;SDS011;27766;52.174;5.456;2022-11-30T03:17:17;25.98;;;19.98;;
42110;SDS011;27766;52.174;5.456;2022-11-30T03:19:44;27.05;;;18.98;;
42110;SDS011;27766;52.174;5.456;2022-11-30T03:22:11;28.17;;;20.73;;
42110;SDS011;27766;52.174;5.456;2022-11-30T03:24:38;23.60;;;17.88;;
42110;SDS011;27766;52.174;5.456;2022-11-30T03:27:05;27.60;;;19.52;;
42110;SDS011;27766;52.174;5.456;2022-11-30T03:29:32;24.80;;;18.45;;
42110;SDS011;27766;52.174;5.456;2022-11-30T03:31:59;24.00;;;19.27;;
42110;SDS011;27766;52.174;5.456;2022-11-30T03:34:29;25.05;;;19.15;;
42110;SDS011;27766;52.174;5.456;2022-11-30T03:36:56;28.98;;;19.35;;
42110;SDS011;27766;52.174;5.456;2022-11-30T03:39:24;28.27;;;19.50;;
42110;SDS011;27766;52.174;5.456;2022-11-30T03:41:51;29.70;;;19.27;;
42110;SDS011;27766;52.174;5.456;2022-11-30T03:44:18;23.70;;;18.42;;
42110;SDS011;27766;52.174;5.456;2022-11-30T03:46:45;27.27;;;18.95;;
42110;SDS011;27766;52.174;5.456;2022-11-30T03:49:12;28.25;;;19.42;;
42110;SDS011;27766;52.174;5.456;2022-11-30T03:51:39;26.98;;;20.27;;
42110;SDS011;27766;52.174;5.456;2022-11-30T03:54:07;30.25;;;19.90;;
42110;SDS011;27766;52.174;5.456;2022-11-30T03:56:34;27.35;;;19.33;;
42110;SDS011;27766;52.174;5.456;2022-11-30T03:59:01;26.77;;;19.55;;
42110;SDS011;27766;52.174;5.456;2022-11-30T04:01:28;28.15;;;19.67;;
42110;SDS011;27766;52.174;5.456;2022-11-30T04:03:55;27.33;;;20.00;;
42110;SDS011;27766;52.174;5.456;2022-11-30T04:06:22;27.98;;;19.17;;
42110;SDS011;27766;52.174;5.456;2022-11-30T04:08:49;22.55;;;18.77;;
42110;SDS011;27766;52.174;5.456;2022-11-30T04:11:16;28.50;;;20.00;;
42110;SDS011;27766;52.174;5.456;2022-11-30T04:13:43;29.85;;;19.98;;
42110;SDS011;27766;52.174;5.456;2022-11-30T04:16:11;25.45;;;19.33;;
42110;SDS011;27766;52.174;5.456;2022-11-30T04:18:38;23.67;;;18.35;;
42110;SDS011;27766;52.174;5.456;2022-11-30T04:21:05;26.42;;;18.40;;
42110;SDS011;27766;52.174;5.456;2022-11-30T04:23:34;25.45;;;19.55;;
42110;SDS011;27766;52.174;5.456;2022-11-30T04:26:03;26.90;;;19.05;;
42110;SDS011;27766;52.174;5.456;2022-11-30T04:28:36;37.05;;;19.35;;
42110;SDS011;27766;52.174;5.456;2022-11-30T04:31:03;28.08;;;19.73;;
42110;SDS011;27766;52.174;5.456;2022-11-30T04:33:31;27.92;;;19.75;;
42110;SDS011;27766;52.174;5.456;2022-11-30T04:35:59;26.83;;;19.83;;
42110;SDS011;27766;52.174;5.456;2022-11-30T04:38:28;27.27;;;20.33;;
42110;SDS011;27766;52.174;5.456;2022-11-30T04:40:56;26.20;;;19.23;;
42110;SDS011;27766;52.174;5.456;2022-11-30T04:43:23;25.02;;;18.25;;
42110;SDS011;27766;52.174;5.456;2022-11-30T04:45:51;25.02;;;19.77;;
42110;SDS011;27766;52.174;5.456;2022-11-30T04:48:18;27.73;;;19.55;;
42110;SDS011;27766;52.174;5.456;2022-11-30T04:50:45;24.70;;;19.00;;
42110;SDS011;27766;52.174;5.456;2022-11-30T04:53:13;26.77;;;19.70;;
42110;SDS011;27766;52.174;5.456;2022-11-30T04:55:40;25.88;;;18.23;;
42110;SDS011;27766;52.174;5.456;2022-11-30T04:58:07;26.65;;;18.23;;
42110;SDS011;27766;52.174;5.456;2022-11-30T05:00:34;26.65;;;19.88;;
42110;SDS011;27766;52.174;5.456;2022-11-30T05:03:02;27.90;;;19.08;;
42110;SDS011;27766;52.174;5.456;2022-11-30T05:05:29;25.40;;;19.65;;
42110;SDS011;27766;52.174;5.456;2022-11-30T05:07:57;28.00;;;18.35;;
42110;SDS011;27766;52.174;5.456;2022-11-30T05:10:26;30.17;;;19.85;;
42110;SDS011;27766;52.174;5.456;2022-11-30T05:12:55;29.65;;;19.58;;
42110;SDS011;27766;52.174;5.456;2022-11-30T05:15:24;31.45;;;20.85;;
42110;SDS011;27766;52.174;5.456;2022-11-30T05:17:51;24.08;;;19.60;;
42110;SDS011;27766;52.174;5.456;2022-11-30T05:20:18;28.13;;;19.15;;
42110;SDS011;27766;52.174;5.456;2022-11-30T05:22:45;28.17;;;18.85;;
42110;SDS011;27766;52.174;5.456;2022-11-30T05:25:14;29.95;;;20.52;;
42110;SDS011;27766;52.174;5.456;2022-11-30T05:27:41;33.38;;;21.23;;
42110;SDS011;27766;52.174;5.456;2022-11-30T05:30:08;26.42;;;19.65;;
42110;SDS011;27766;52.174;5.456;2022-11-30T05:32:36;32.70;;;20.63;;
42110;SDS011;27766;52.174;5.456;2022-11-30T05:35:03;27.92;;;19.63;;
42110;SDS011;27766;52.174;5.456;2022-11-30T05:37:31;28.85;;;20.10;;
42110;SDS011;27766;52.174;5.456;2022-11-30T05:39:58;25.98;;;19.73;;
42110;SDS011;27766;52.174;5.456;2022-11-30T05:42:25;32.38;;;20.40;;
42110;SDS011;27766;52.174;5.456;2022-11-30T05:44:53;27.30;;;20.25;;
42110;SDS011;27766;52.174;5.456;2022-11-30T05:47:21;28.05;;;19.77;;
42110;SDS011;27766;52.174;5.456;2022-11-30T05:49:48;28.52;;;20.52;;
42110;SDS011;27766;52.174;5.456;2022-11-30T05:52:15;29.30;;;20.35;;
42110;SDS011;27766;52.174;5.456;2022-11-30T05:54:42;26.50;;;19.33;;
42110;SDS011;27766;52.174;5.456;2022-11-30T05:57:09;31.58;;;21.63;;
42110;SDS011;27766;52.174;5.456;2022-11-30T05:59:36;27.48;;;20.10;;
42110;SDS011;27766;52.174;5.456;2022-11-30T06:02:03;26.92;;;19.70;;
42110;SDS011;27766;52.174;5.456;2022-11-30T06:04:31;26.95;;;19.33;;
42110;SDS011;27766;52.174;5.456;2022-11-30T06:06:59;25.40;;;19.55;;
42110;SDS011;27766;52.174;5.456;2022-11-30T06:09:27;30.02;;;19.67;;
42110;SDS011;27766;52.174;5.456;2022-11-30T06:11:54;31.30;;;19.25;;
42110;SDS011;27766;52.174;5.456;2022-11-30T06:14:21;30.73;;;19.65;;
42110;SDS011;27766;52.174;5.456;2022-11-30T06:16:48;25.80;;;19.73;;
42110;SDS011;27766;52.174;5.456;2022-11-30T06:19:15;29.50;;;19.88;;
42110;SDS011;27766;52.174;5.456;2022-11-30T06:21:43;32.10;;;19.95;;
42110;SDS011;27766;52.174;5.456;2022-11-30T06:24:10;28.23;;;19.15;;
42110;SDS011;27766;52.174;5.456;2022-11-30T06:26:37;32.50;;;21.40;;
42110;SDS011;27766;52.174;5.456;2022-11-30T06:29:04;26.30;;;20.25;;
42110;SDS011;27766;52.174;5.456;2022-11-30T06:31:31;30.75;;;20.80;;
42110;SDS011;27766;52.174;5.456;2022-11-30T06:33:59;27.60;;;20.05;;
42110;SDS011;27766;52.174;5.456;2022-11-30T06:36:26;27.08;;;19.67;;
42110;SDS011;27766;52.174;5.456;2022-11-30T06:39:01;32.45;;;20.20;;
42110;SDS011;27766;52.174;5.456;2022-11-30T06:41:28;33.28;;;20.73;;
42110;SDS011;27766;52.174;5.456;2022-11-30T06:43:55;33.72;;;21.50;;
42110;SDS011;27766;52.174;5.456;2022-11-30T06:46:23;27.92;;;21.10;;
42110;SDS011;27766;52.174;5.456;2022-11-30T06:48:52;28.70;;;18.50;;
42110;SDS011;27766;52.174;5.456;2022-11-30T06:51:19;30.20;;;19.15;;
42110;SDS011;27766;52.174;5.456;2022-11-30T06:53:46;27.52;;;18.70;;
42110;SDS011;27766;52.174;5.456;2022-11-30T06:56:13;26.63;;;19.25;;
42110;SDS011;27766;52.174;5.456;2022-11-30T06:58:40;30.40;;;20.23;;
42110;SDS011;27766;52.174;5.456;2022-11-30T07:01:12;32.78;;;20.48;;
42110;SDS011;27766;52.174;5.456;2022-11-30T07:03:41;30.85;;;20.67;;
42110;SDS011;27766;52.174;5.456;2022-11-30T07:06:09;27.33;;;18.00;;
42110;SDS011;27766;52.174;5.456;2022-11-30T07:08:38;30.77;;;21.52;;
42110;SDS011;27766;52.174;5.456;2022-11-30T07:11:06;24.95;;;18.92;;
42110;SDS011;27766;52.174;5.456;2022-11-30T07:13:35;30.05;;;19.33;;
42110;SDS011;27766;52.174;5.456;2022-11-30T07:16:03;32.28;;;18.98;;
42110;SDS011;27766;52.174;5.456;2022-11-30T07:18:32;32.60;;;20.60;;
42110;SDS011;27766;52.174;5.456;2022-11-30T07:21:00;30.90;;;19.75;;
42110;SDS011;27766;52.174;5.456;2022-11-30T07:23:29;34.70;;;19.58;;
42110;SDS011;27766;52.174;5.456;2022-11-30T07:26:23;33.08;;;20.38;;
42110;SDS011;27766;52.174;5.456;2022-11-30T07:28:50;32.30;;;21.23;;
42110;SDS011;27766;52.174;5.456;2022-11-30T07:31:30;46.00;;;21.20;;
42110;SDS011;27766;52.174;5.456;2022-11-30T07:34:02;47.00;;;20.52;;
42110;SDS011;27766;52.174;5.456;2022-11-30T07:36:32;41.15;;;21.38;;
42110;SDS011;27766;52.174;5.456;2022-11-30T07:39:01;87.30;;;23.27;;
42110;SDS011;27766;52.174;5.456;2022-11-30T07:41:29;44.80;;;20.30;;
42110;SDS011;27766;52.174;5.456;2022-11-30T07:43:57;63.78;;;22.25;;
42110;SDS011;27766;52.174;5.456;2022-11-30T07:46:24;71.63;;;22.05;;
42110;SDS011;27766;52.174;5.456;2022-11-30T07:48:51;36.95;;;21.27;;
42110;SDS011;27766;52.174;5.456;2022-11-30T07:51:19;34.30;;;19.58;;
42110;SDS011;27766;52.174;5.456;2022-11-30T07:53:47;56.42;;;20.38;;
42110;SDS011;27766;52.174;5.456;2022-11-30T07:56:16;36.53;;;20.65;;
42110;SDS011;27766;52.174;5.456;2022-11-30T07:58:45;39.85;;;23.80;;
42110;SDS011;27766;52.174;5.456;2022-11-30T08:01:14;37.38;;;23.65;;
42110;SDS011;27766;52.174;5.456;2022-11-30T08:03:47;36.72;;;24.05;;
42110;SDS011;27766;52.174;5.456;2022-11-30T08:06:25;48.05;;;24.42;;
42110;SDS011;27766;52.174;5.456;2022-11-30T08:08:59;37.85;;;23.73;;
42110;SDS011;27766;52.174;5.456;2022-11-30T08:11:29;43.42;;;23.33;;
42110;SDS011;27766;52.174;5.456;2022-11-30T08:13:58;35.15;;;23.40;;
42110;SDS011;27766;52.174;5.456;2022-11-30T08:16:27;36.00;;;22.73;;
42110;SDS011;27766;52.174;5.456;2022-11-30T08:18:56;35.20;;;22.90;;
42110;SDS011;27766;52.174;5.456;2022-11-30T08:21:24;33.92;;;22.17;;
42110;SDS011;27766;52.174;5.456;2022-11-30T08:23:53;35.28;;;21.17;;
42110;SDS011;27766;52.174;5.456;2022-11-30T08:26:25;35.95;;;22.48;;
42110;SDS011;27766;52.174;5.456;2022-11-30T08:28:57;33.80;;;22.48;;
42110;SDS011;27766;52.174;5.456;2022-11-30T08:31:29;32.83;;;21.02;;
42110;SDS011;27766;52.174;5.456;2022-11-30T08:34:02;35.53;;;20.50;;
42110;SDS011;27766;52.174;5.456;2022-11-30T08:36:31;38.85;;;21.70;;
42110;SDS011;27766;52.174;5.456;2022-11-30T08:38:59;31.10;;;20.33;;
42110;SDS011;27766;52.174;5.456;2022-11-30T08:41:28;48.47;;;19.67;;
42110;SDS011;27766;52.174;5.456;2022-11-30T08:43:55;38.15;;;18.52;;
42110;SDS011;27766;52.174;5.456;2022-11-30T08:46:23;30.05;;;19.13;;
42110;SDS011;27766;52.174;5.456;2022-11-30T08:49:10;28.63;;;18.23;;
42110;SDS011;27766;52.174;5.456;2022-11-30T08:51:49;28.17;;;18.88;;
42110;SDS011;27766;52.174;5.456;2022-11-30T08:54:36;28.10;;;18.92;;
42110;SDS011;27766;52.174;5.456;2022-11-30T08:57:05;32.38;;;19.48;;
42110;SDS011;27766;52.174;5.456;2022-11-30T08:59:32;25.77;;;18.08;;
42110;SDS011;27766;52.174;5.456;2022-11-30T09:01:59;25.67;;;18.35;;
42110;SDS011;27766;52.174;5.456;2022-11-30T09:04:27;31.27;;;19.17;;
42110;SDS011;27766;52.174;5.456;2022-11-30T09:06:54;28.98;;;18.80;;
42110;SDS011;27766;52.174;5.456;2022-11-30T09:09:25;26.23;;;19.05;;
42110;SDS011;27766;52.174;5.456;2022-11-30T09:11:52;27.25;;;18.60;;
42110;SDS011;27766;52.174;5.456;2022-11-30T09:14:20;28.13;;;19.00;;
42110;SDS011;27766;52.174;5.456;2022-11-30T09:16:47;28.80;;;18.98;;
42110;SDS011;27766;52.174;5.456;2022-11-30T09:19:14;25.30;;;18.42;;
42110;SDS011;27766;52.174;5.456;2022-11-30T09:21:41;28.25;;;21.10;;
42110;SDS011;27766;52.174;5.456;2022-11-30T09:24:17;31.83;;;19.30;;
42110;SDS011;27766;52.174;5.456;2022-11-30T09:26:44;29.10;;;19.90;;
42110;SDS011;27766;52.174;5.456;2022-11-30T09:29:11;31.48;;;21.45;;
42110;SDS011;27766;52.174;5.456;2022-11-30T09:31:38;32.13;;;21.83;;
42110;SDS011;27766;52.174;5.456;2022-11-30T09:34:05;36.97;;;22.02;;
42110;SDS011;27766;52.174;5.456;2022-11-30T09:36:32;34.03;;;23.45;;
42110;SDS011;27766;52.174;5.456;2022-11-30T09:38:59;31.98;;;21.92;;
42110;SDS011;27766;52.174;5.456;2022-11-30T09:44:13;31.42;;;21.33;;
42110;SDS011;27766;52.174;5.456;2022-11-30T09:49:59;36.75;;;23.92;;
42110;SDS011;27766;52.174;5.456;2022-11-30T09:52:38;33.55;;;23.25;;
42110;SDS011;27766;52.174;5.456;2022-11-30T09:55:11;28.88;;;22.05;;
42110;SDS011;27766;52.174;5.456;2022-11-30T09:57:47;36.53;;;23.85;;
42110;SDS011;27766;52.174;5.456;2022-11-30T10:00:19;41.08;;;24.83;;
42110;SDS011;27766;52.174;5.456;2022-11-30T10:02:50;35.72;;;25.23;;
42110;SDS011;27766;52.174;5.456;2022-11-30T10:05:24;34.92;;;24.73;;
42110;SDS011;27766;52.174;5.456;2022-11-30T10:21:46;36.22;;;25.02;;
42110;SDS011;27766;52.174;5.456;2022-11-30T10:30:01;40.10;;;25.75;;
42110;SDS011;27766;52.174;5.456;2022-11-30T10:32:36;37.40;;;25.95;;
42110;SDS011;27766;52.174;5.456;2022-11-30T10:35:25;40.17;;;26.08;;
42110;SDS011;27766;52.174;5.456;2022-11-30T10:38:02;42.83;;;24.90;;
42110;SDS011;27766;52.174;5.456;2022-11-30T10:40:58;37.20;;;25.33;;
42110;SDS011;27766;52.174;5.456;2022-11-30T10:43:37;38.33;;;25.65;;
42110;SDS011;27766;52.174;5.456;2022-11-30T10:46:21;35.03;;;25.05;;
42110;SDS011;27766;52.174;5.456;2022-11-30T10:49:04;33.72;;;23.50;;
42110;SDS011;27766;52.174;5.456;2022-11-30T10:51:36;30.83;;;21.20;;
42110;SDS011;27766;52.174;5.456;2022-11-30T10:54:16;27.63;;;21.60;;
42110;SDS011;27766;52.174;5.456;2022-11-30T10:56:46;26.75;;;19.83;;
42110;SDS011;27766;52.174;5.456;2022-11-30T10:59:24;24.73;;;19.63;;
42110;SDS011;27766;52.174;5.456;2022-11-30T11:01:54;26.52;;;18.23;;
42110;SDS011;27766;52.174;5.456;2022-11-30T11:04:22;26.20;;;17.13;;
42110;SDS011;27766;52.174;5.456;2022-11-30T11:06:55;22.63;;;16.02;;
42110;SDS011;27766;52.174;5.456;2022-11-30T11:09:44;20.85;;;16.15;;
42110;SDS011;27766;52.174;5.456;2022-11-30T11:12:17;20.40;;;15.27;;
42110;SDS011;27766;52.174;5.456;2022-11-30T11:14:47;18.67;;;15.02;;
42110;SDS011;27766;52.174;5.456;2022-11-30T11:19:45;19.38;;;14.18;;
42110;SDS011;27766;52.174;5.456;2022-11-30T11:22:18;19.38;;;13.45;;
42110;SDS011;27766;52.174;5.456;2022-11-30T11:25:18;18.63;;;14.07;;
42110;SDS011;27766;52.174;5.456;2022-11-30T11:27:51;21.27;;;14.38;;
42110;SDS011;27766;52.174;5.456;2022-11-30T11:37:59;19.50;;;14.85;;
42110;SDS011;27766;52.174;5.456;2022-11-30T11:40:26;21.50;;;15.57;;
42110;SDS011;27766;52.174;5.456;2022-11-30T11:42:54;20.30;;;14.98;;
42110;SDS011;27766;52.174;5.456;2022-11-30T11:45:24;22.77;;;15.27;;
42110;SDS011;27766;52.174;5.456;2022-11-30T11:48:04;17.90;;;14.93;;
42110;SDS011;27766;52.174;5.456;2022-11-30T11:50:58;20.25;;;15.93;;
42110;SDS011;27766;52.174;5.456;2022-11-30T11:53:35;25.25;;;17.70;;
42110;SDS011;27766;52.174;5.456;2022-11-30T11:56:19;24.85;;;16.85;;
42110;SDS011;27766;52.174;5.456;2022-11-30T11:59:06;22.38;;;17.33;;
42110;SDS011;27766;52.174;5.456;2022-11-30T12:01:54;27.20;;;18.00;;
42110;SDS011;27766;52.174;5.456;2022-11-30T12:07:08;24.27;;;17.40;;
42110;SDS011;27766;52.174;5.456;2022-11-30T12:13:09;25.02;;;17.38;;
42110;SDS011;27766;52.174;5.456;2022-11-30T12:18:28;22.33;;;16.88;;
42110;SDS011;27766;52.174;5.456;2022-11-30T12:29:54;22.05;;;16.63;;
42110;SDS011;27766;52.174;5.456;2022-11-30T12:38:33;24.85;;;18.17;;
42110;SDS011;27766;52.174;5.456;2022-11-30T12:46:33;25.63;;;18.85;;
42110;SDS011;27766;52.174;5.456;2022-11-30T12:49:46;24.95;;;17.38;;
42110;SDS011;27766;52.174;5.456;2022-11-30T12:59:00;28.92;;;18.08;;
42110;SDS011;27766;52.174;5.456;2022-11-30T13:04:05;22.90;;;17.48;;
42110;SDS011;27766;52.174;5.456;2022-11-30T13:07:18;24.00;;;17.75;;
42110;SDS011;27766;52.174;5.456;2022-11-30T13:09:57;22.80;;;17.35;;
42110;SDS011;27766;52.174;5.456;2022-11-30T13:12:33;25.55;;;17.73;;
42110;SDS011;27766;52.174;5.456;2022-11-30T13:15:05;23.53;;;18.57;;
42110;SDS011;27766;52.174;5.456;2022-11-30T13:17:43;22.15;;;15.80;;
42110;SDS011;27766;52.174;5.456;2022-11-30T13:20:17;26.33;;;17.15;;
42110;SDS011;27766;52.174;5.456;2022-11-30T13:23:12;23.02;;;17.05;;
42110;SDS011;27766;52.174;5.456;2022-11-30T13:25:45;21.08;;;15.52;;
42110;SDS011;27766;52.174;5.456;2022-11-30T13:28:45;23.10;;;15.93;;
42110;SDS011;27766;52.174;5.456;2022-11-30T13:31:23;24.20;;;16.23;;
42110;SDS011;27766;52.174;5.456;2022-11-30T13:47:03;22.67;;;15.73;;
42110;SDS011;27766;52.174;5.456;2022-11-30T13:49:39;26.35;;;15.32;;
42110;SDS011;27766;52.174;5.456;2022-11-30T13:52:08;21.13;;;15.65;;
42110;SDS011;27766;52.174;5.456;2022-11-30T13:54:49;23.33;;;15.18;;
42110;SDS011;27766;52.174;5.456;2022-11-30T13:59:50;19.05;;;13.35;;
42110;SDS011;27766;52.174;5.456;2022-11-30T14:13:06;15.38;;;11.45;;
42110;SDS011;27766;52.174;5.456;2022-11-30T14:15:57;16.98;;;12.02;;
42110;SDS011;27766;52.174;5.456;2022-11-30T14:18:29;17.70;;;13.35;;
42110;SDS011;27766;52.174;5.456;2022-11-30T14:21:23;21.10;;;12.40;;
42110;SDS011;27766;52.174;5.456;2022-11-30T14:24:00;15.88;;;11.95;;
42110;SDS011;27766;52.174;5.456;2022-11-30T14:26:41;18.17;;;12.90;;
42110;SDS011;27766;52.174;5.456;2022-11-30T14:35:06;22.40;;;14.18;;
42110;SDS011;27766;52.174;5.456;2022-11-30T14:37:41;22.00;;;13.65;;
42110;SDS011;27766;52.174;5.456;2022-11-30T14:40:14;19.98;;;12.98;;
42110;SDS011;27766;52.174;5.456;2022-11-30T14:42:46;18.85;;;12.57;;
42110;SDS011;27766;52.174;5.456;2022-11-30T14:45:25;17.83;;;14.35;;
42110;SDS011;27766;52.174;5.456;2022-11-30T14:48:03;18.63;;;13.50;;
42110;SDS011;27766;52.174;5.456;2022-11-30T14:50:50;24.20;;;13.63;;
42110;SDS011;27766;52.174;5.456;2022-11-30T14:53:22;20.92;;;13.95;;
42110;SDS011;27766;52.174;5.456;2022-11-30T14:56:12;22.55;;;14.65;;
42110;SDS011;27766;52.174;5.456;2022-11-30T14:59:00;18.02;;;12.75;;
42110;SDS011;27766;52.174;5.456;2022-11-30T15:01:53;19.02;;;13.18;;
42110;SDS011;27766;52.174;5.456;2022-11-30T15:04:25;20.95;;;13.90;;
42110;SDS011;27766;52.174;5.456;2022-11-30T15:06:55;20.15;;;13.80;;
42110;SDS011;27766;52.174;5.456;2022-11-30T15:09:25;23.60;;;14.60;;
42110;SDS011;27766;52.174;5.456;2022-11-30T15:11:57;20.52;;;13.95;;
42110;SDS011;27766;52.174;5.456;2022-11-30T15:14:25;20.13;;;13.60;;
42110;SDS011;27766;52.174;5.456;2022-11-30T15:16:53;31.17;;;19.00;;
42110;SDS011;27766;52.174;5.456;2022-11-30T15:19:24;25.90;;;15.43;;
42110;SDS011;27766;52.174;5.456;2022-11-30T15:21:53;20.10;;;14.57;;
42110;SDS011;27766;52.174;5.456;2022-11-30T15:24:21;22.30;;;14.50;;
42110;SDS011;27766;52.174;5.456;2022-11-30T15:29:26;22.63;;;14.90;;
42110;SDS011;27766;52.174;5.456;2022-11-30T15:31:55;22.67;;;15.63;;
42110;SDS011;27766;52.174;5.456;2022-11-30T15:37:00;26.20;;;14.82;;
42110;SDS011;27766;52.174;5.456;2022-11-30T15:39:27;25.42;;;16.23;;
42110;SDS011;27766;52.174;5.456;2022-11-30T15:41:58;25.33;;;15.13;;
42110;SDS011;27766;52.174;5.456;2022-11-30T15:47:04;26.20;;;16.48;;
42110;SDS011;27766;52.174;5.456;2022-11-30T15:49:37;23.80;;;15.55;;
42110;SDS011;27766;52.174;5.456;2022-11-30T15:52:14;26.15;;;14.95;;
42110;SDS011;27766;52.174;5.456;2022-11-30T15:54:50;24.40;;;16.38;;
42110;SDS011;27766;52.174;5.456;2022-11-30T15:57:19;22.83;;;15.23;;
42110;SDS011;27766;52.174;5.456;2022-11-30T16:02:34;28.70;;;16.38;;
42110;SDS011;27766;52.174;5.456;2022-11-30T16:07:53;27.40;;;17.52;;
42110;SDS011;27766;52.174;5.456;2022-11-30T16:10:34;23.95;;;16.38;;
42110;SDS011;27766;52.174;5.456;2022-11-30T16:13:03;29.23;;;16.98;;
42110;SDS011;27766;52.174;5.456;2022-11-30T16:15:32;25.83;;;17.60;;
42110;SDS011;27766;52.174;5.456;2022-11-30T16:20:55;29.98;;;18.63;;
42110;SDS011;27766;52.174;5.456;2022-11-30T16:25:55;30.27;;;18.40;;
42110;SDS011;27766;52.174;5.456;2022-11-30T16:28:23;26.45;;;17.35;;
42110;SDS011;27766;52.174;5.456;2022-11-30T16:30:50;24.35;;;16.52;;
42110;SDS011;27766;52.174;5.456;2022-11-30T16:33:23;28.57;;;17.73;;
42110;SDS011;27766;52.174;5.456;2022-11-30T16:38:25;22.95;;;16.83;;
42110;SDS011;27766;52.174;5.456;2022-11-30T16:40:54;21.50;;;16.27;;
42110;SDS011;27766;52.174;5.456;2022-11-30T16:43:22;27.67;;;18.52;;
42110;SDS011;27766;52.174;5.456;2022-11-30T16:45:51;26.92;;;17.75;;
42110;SDS011;27766;52.174;5.456;2022-11-30T16:48:18;24.83;;;17.13;;
42110;SDS011;27766;52.174;5.456;2022-11-30T16:50:45;26.52;;;17.13;;
42110;SDS011;27766;52.174;5.456;2022-11-30T16:53:13;35.15;;;26.17;;
42110;SDS011;27766;52.174;5.456;2022-11-30T16:55:41;29.75;;;19.88;;
42110;SDS011;27766;52.174;5.456;2022-11-30T16:58:09;26.42;;;18.45;;
42110;SDS011;27766;52.174;5.456;2022-11-30T17:00:36;26.10;;;18.42;;
42110;SDS011;27766;52.174;5.456;2022-11-30T17:03:08;25.50;;;17.95;;
42110;SDS011;27766;52.174;5.456;2022-11-30T17:05:36;23.02;;;17.58;;
42110;SDS011;27766;52.174;5.456;2022-11-30T17:08:03;31.85;;;19.33;;
42110;SDS011;27766;52.174;5.456;2022-11-30T17:10:30;25.85;;;19.25;;
42110;SDS011;27766;52.174;5.456;2022-11-30T17:12:58;33.05;;;21.45;;
42110;SDS011;27766;52.174;5.456;2022-11-30T17:15:25;38.47;;;24.98;;
42110;SDS011;27766;52.174;5.456;2022-11-30T17:17:53;39.15;;;25.40;;